createdAt,value
2023-05-01T01:05:23.980Z,0.10
2023-05-01T01:08:11.548Z,0.20
2023-05-01T01:10:51.663Z,0.17
2023-05-01T01:13:36.804Z,0.20
2023-05-01T01:16:13.924Z,0.20
2023-05-01T01:18:48.624Z,0.10
2023-05-01T01:21:25.181Z,0.10
2023-05-01T01:24:10.562Z,0.10
2023-05-01T01:26:56.004Z,0.10
2023-05-01T01:30:00.013Z,0.20
2023-05-01T01:32:38.853Z,0.10
2023-05-01T01:35:10.803Z,0.10
2023-05-01T01:37:52.197Z,0.13
2023-05-01T01:40:26.085Z,0.10
2023-05-01T01:42:58.898Z,0.10
2023-05-01T01:45:53.671Z,0.20
2023-05-01T01:48:26.344Z,0.10
2023-05-01T01:50:57.418Z,0.10
2023-05-01T01:53:25.850Z,0.10
2023-05-01T01:55:54.730Z,0.10
2023-05-01T01:58:26.348Z,0.20
2023-05-01T02:00:55.347Z,0.10
2023-05-01T02:03:23.832Z,0.20
2023-05-01T02:05:52.237Z,0.10
2023-05-01T02:08:20.101Z,0.10
2023-05-01T02:10:48.150Z,0.10
2023-05-01T02:13:17.435Z,0.10
2023-05-01T02:15:45.965Z,0.20
2023-05-01T02:18:14.704Z,0.10
2023-05-01T02:20:42.833Z,0.13
2023-05-01T02:23:10.116Z,0.13
2023-05-01T02:25:39.451Z,0.20
2023-05-01T02:28:12.829Z,0.10
2023-05-01T02:30:40.063Z,0.10
2023-05-01T02:33:09.936Z,0.15
2023-05-01T02:35:44.591Z,0.20
2023-05-01T02:38:12.980Z,0.10
2023-05-01T02:40:42.884Z,0.20
2023-05-01T02:43:12.420Z,0.20
2023-05-01T02:45:40.395Z,0.20
2023-05-01T02:48:10.167Z,0.20
2023-05-01T02:50:40.657Z,0.20
2023-05-01T02:53:08.277Z,0.10
2023-05-01T02:55:35.882Z,0.10
2023-05-01T02:58:03.006Z,0.10
2023-05-01T03:00:30.253Z,0.10
2023-05-01T03:02:57.316Z,0.10
2023-05-01T03:05:24.212Z,0.10
2023-05-01T03:07:51.279Z,0.20
2023-05-01T03:10:18.295Z,0.20
2023-05-01T03:12:45.379Z,0.10
2023-05-01T03:15:12.651Z,0.10
2023-05-01T03:17:39.747Z,0.20
2023-05-01T03:20:07.251Z,0.20
2023-05-01T03:22:34.149Z,0.20
2023-05-01T03:25:01.534Z,0.15
2023-05-01T03:27:28.349Z,0.17
2023-05-01T03:29:55.571Z,0.20
2023-05-01T03:32:23.038Z,0.20
2023-05-01T03:34:50.014Z,0.10
2023-05-01T03:37:16.834Z,0.13
2023-05-01T03:39:43.698Z,0.20
2023-05-01T03:42:10.512Z,0.20
2023-05-01T03:44:37.305Z,0.30
2023-05-01T03:47:04.811Z,0.20
2023-05-01T03:49:31.627Z,0.10
2023-05-01T03:51:58.480Z,0.10
2023-05-01T03:54:25.905Z,0.20
2023-05-01T03:56:52.898Z,0.20
2023-05-01T03:59:19.684Z,0.30
2023-05-01T04:01:46.584Z,0.10
2023-05-01T04:04:13.962Z,0.10
2023-05-01T04:06:41.525Z,0.20
2023-05-01T04:09:08.442Z,0.30
2023-05-01T04:11:35.242Z,0.10
2023-05-01T04:14:02.093Z,0.20
2023-05-01T04:16:30.527Z,0.20
2023-05-01T04:18:57.399Z,0.20
2023-05-01T04:21:24.295Z,0.20
2023-05-01T04:23:51.102Z,0.30
2023-05-01T04:26:17.893Z,0.20
2023-05-01T04:28:44.750Z,0.13
2023-05-01T04:31:11.630Z,0.20
2023-05-01T04:33:38.598Z,0.30
2023-05-01T04:36:05.745Z,0.20
2023-05-01T04:38:32.961Z,0.20
2023-05-01T04:40:59.739Z,0.20
2023-05-01T04:43:26.495Z,0.20
2023-05-01T04:45:54.647Z,0.20
2023-05-01T04:48:21.551Z,0.20
2023-05-01T04:50:48.328Z,0.20
2023-05-01T04:53:15.341Z,0.20
2023-05-01T04:55:42.151Z,0.20
2023-05-01T04:58:08.982Z,0.20
2023-05-01T05:00:35.787Z,0.40
2023-05-01T05:03:02.684Z,0.20
2023-05-01T05:05:29.753Z,0.20
2023-05-01T05:07:56.678Z,0.20
2023-05-01T05:10:23.526Z,0.30
2023-05-01T05:12:50.553Z,0.40
2023-05-01T05:15:17.355Z,0.20
2023-05-01T05:17:45.619Z,0.20
2023-05-01T05:20:12.590Z,0.20
2023-05-01T05:22:39.434Z,0.45
2023-05-01T05:25:06.901Z,0.22
2023-05-01T05:27:38.248Z,0.20
2023-05-01T05:30:06.238Z,0.28
2023-05-01T05:32:33.704Z,0.30
2023-05-01T05:35:00.759Z,0.30
2023-05-01T05:37:27.639Z,0.30
2023-05-01T05:39:54.669Z,0.20
2023-05-01T05:42:21.639Z,0.20
2023-05-01T05:44:48.419Z,0.20
2023-05-01T05:47:15.182Z,0.22
2023-05-01T05:49:42.246Z,0.20
2023-05-01T05:52:09.094Z,0.10
2023-05-01T05:54:36.109Z,0.25
2023-05-01T05:57:03.832Z,0.30
2023-05-01T05:59:30.895Z,0.30
2023-05-01T06:01:58.016Z,0.37
2023-05-01T06:04:24.891Z,0.50
2023-05-01T06:06:52.104Z,0.40
2023-05-01T06:09:19.069Z,0.30
2023-05-01T06:11:46.152Z,0.20
2023-05-01T06:14:12.979Z,0.32
2023-05-01T06:16:40.088Z,0.40
2023-05-01T06:19:07.928Z,1.30
2023-05-01T06:21:34.730Z,1.30
2023-05-01T06:24:01.755Z,1.00
2023-05-01T06:26:28.571Z,0.73
2023-05-01T06:28:55.519Z,0.95
2023-05-01T06:31:22.413Z,0.80
2023-05-01T06:33:49.269Z,0.75
2023-05-01T06:36:16.036Z,0.40
2023-05-01T06:38:48.546Z,0.30
2023-05-01T06:41:16.473Z,0.60
2023-05-01T06:43:43.321Z,0.60
2023-05-01T06:46:10.358Z,0.60
2023-05-01T06:48:37.186Z,0.60
2023-05-01T06:51:04.211Z,0.50
2023-05-01T06:53:31.035Z,0.50
2023-05-01T06:55:57.804Z,0.60
2023-05-01T06:58:24.814Z,0.60
2023-05-01T07:00:53.352Z,0.60
2023-05-01T07:03:20.378Z,0.63
2023-05-01T07:05:47.269Z,0.50
2023-05-01T07:08:14.412Z,0.50
2023-05-01T07:10:42.193Z,0.50
2023-05-01T07:13:09.680Z,0.70
2023-05-01T07:15:37.170Z,0.63
2023-05-01T07:18:06.145Z,0.65
2023-05-01T07:20:34.768Z,0.68
2023-05-01T07:23:01.875Z,0.70
2023-05-01T07:25:28.709Z,0.52
2023-05-01T07:27:55.552Z,0.60
2023-05-01T07:30:22.394Z,0.75
2023-05-01T07:32:49.744Z,0.80
2023-05-01T07:35:16.692Z,1.10
2023-05-01T07:37:43.523Z,1.00
2023-05-01T07:40:10.914Z,1.10
2023-05-01T07:42:37.774Z,0.70
2023-05-01T07:45:05.346Z,0.70
2023-05-01T07:47:32.207Z,1.40
2023-05-01T07:49:59.348Z,0.90
2023-05-01T07:52:26.257Z,0.75
2023-05-01T07:54:53.220Z,0.40
2023-05-01T07:57:20.157Z,0.60
2023-05-01T07:59:47.012Z,0.60
2023-05-01T08:02:14.020Z,0.40
2023-05-01T08:04:41.917Z,0.95
2023-05-01T08:07:08.926Z,1.20
2023-05-01T08:09:35.831Z,0.50
2023-05-01T08:12:03.934Z,0.40
2023-05-01T08:14:31.002Z,0.50
2023-05-01T08:16:57.924Z,0.60
2023-05-01T08:19:24.932Z,0.45
2023-05-01T08:21:51.894Z,0.47
2023-05-01T08:24:18.935Z,0.50
2023-05-01T08:26:46.047Z,0.60
2023-05-01T08:29:13.113Z,0.40
2023-05-01T08:31:40.429Z,0.38
2023-05-01T08:34:07.347Z,0.40
2023-05-01T08:36:34.654Z,0.55
2023-05-01T08:39:01.531Z,0.43
2023-05-01T08:41:29.207Z,0.50
2023-05-01T08:44:01.641Z,0.60
2023-05-01T08:46:34.483Z,0.65
2023-05-01T08:49:05.425Z,0.70
2023-05-01T08:51:34.818Z,0.50
2023-05-01T08:54:03.747Z,0.50
2023-05-01T08:56:31.753Z,0.70
2023-05-01T08:59:01.251Z,0.80
2023-05-01T09:01:29.615Z,0.50
2023-05-01T09:03:58.286Z,0.50
2023-05-01T09:06:28.565Z,0.52
2023-05-01T09:08:56.052Z,0.50
2023-05-01T09:11:26.282Z,0.80
2023-05-01T09:13:54.030Z,1.00
2023-05-01T09:16:21.774Z,0.60
2023-05-01T09:18:48.976Z,0.50
2023-05-01T09:21:15.879Z,0.80
2023-05-01T09:23:42.801Z,1.03
2023-05-01T09:26:09.868Z,1.10
2023-05-01T09:28:45.126Z,0.80
2023-05-01T09:31:29.161Z,0.68
2023-05-01T09:34:01.522Z,0.60
2023-05-01T09:36:31.114Z,0.70
2023-05-01T09:39:00.261Z,0.55
2023-05-01T09:41:28.117Z,0.50
2023-05-01T09:43:57.035Z,0.50
2023-05-01T09:46:25.130Z,1.13
2023-05-01T09:48:59.070Z,0.80
2023-05-01T09:51:30.571Z,0.82
2023-05-01T09:54:05.454Z,0.80
2023-05-01T09:56:34.033Z,0.80
2023-05-01T09:59:21.460Z,0.70
2023-05-01T10:01:50.092Z,0.63
2023-05-01T10:04:17.522Z,0.50
2023-05-01T10:06:44.434Z,0.90
2023-05-01T10:09:17.454Z,1.17
2023-05-01T10:11:53.738Z,1.52
2023-05-01T10:14:21.896Z,1.30
2023-05-01T10:16:49.681Z,1.02
2023-05-01T10:19:20.296Z,0.85
2023-05-01T10:21:47.273Z,0.70
2023-05-01T10:24:16.349Z,0.82
2023-05-01T10:26:43.811Z,1.20
2023-05-01T10:29:12.576Z,1.17
2023-05-01T10:31:42.665Z,1.08
2023-05-01T10:34:11.963Z,0.90
2023-05-01T10:36:49.367Z,1.13
2023-05-01T10:39:36.500Z,0.80
2023-05-01T10:42:17.803Z,0.98
2023-05-01T10:44:46.325Z,1.00
2023-05-01T10:47:28.712Z,1.27
2023-05-01T10:50:09.891Z,0.93
2023-05-01T10:53:12.358Z,1.08
2023-05-01T10:55:42.639Z,1.20
2023-05-01T10:58:10.407Z,1.47
2023-05-01T11:00:37.594Z,1.50
2023-05-01T11:03:22.668Z,1.05
2023-05-01T11:06:04.744Z,0.90
2023-05-01T11:08:33.473Z,0.80
2023-05-01T11:11:26.940Z,1.15
2023-05-01T11:14:10.967Z,1.40
2023-05-01T11:16:38.137Z,1.27
2023-05-01T11:19:23.602Z,1.60
2023-05-01T11:21:51.022Z,2.25
2023-05-01T11:24:18.949Z,1.70
2023-05-01T11:26:46.524Z,1.75
2023-05-01T11:29:13.515Z,1.30
2023-05-01T11:31:41.703Z,0.80
2023-05-01T11:34:08.893Z,0.83
2023-05-01T11:36:49.882Z,0.70
2023-05-01T11:39:18.056Z,0.70
2023-05-01T11:41:45.337Z,1.00
2023-05-01T11:44:13.396Z,0.90
2023-05-01T11:46:40.638Z,0.50
2023-05-01T11:49:08.521Z,0.65
2023-05-01T11:51:35.808Z,0.50
2023-05-01T11:54:10.664Z,0.75
2023-05-01T11:56:38.341Z,0.80
2023-05-01T11:59:13.621Z,1.00
2023-05-01T12:01:41.990Z,1.00
2023-05-01T12:04:09.215Z,1.00
2023-05-01T12:06:47.034Z,0.70
2023-05-01T12:09:24.794Z,0.95
2023-05-01T12:11:53.749Z,0.85
2023-05-01T12:14:24.612Z,0.55
2023-05-01T12:16:52.259Z,0.63
2023-05-01T12:19:20.996Z,0.40
2023-05-01T12:21:48.612Z,0.40
2023-05-01T12:24:18.034Z,0.35
2023-05-01T12:26:46.343Z,0.50
2023-05-01T12:29:13.844Z,0.30
2023-05-01T12:31:48.669Z,0.20
2023-05-01T12:34:16.284Z,0.30
2023-05-01T12:36:53.897Z,0.40
2023-05-01T12:39:21.283Z,0.30
2023-05-01T12:41:49.338Z,0.22
2023-05-01T12:44:23.173Z,0.20
2023-05-01T12:47:04.558Z,0.47
2023-05-01T12:49:32.610Z,0.20
2023-05-01T12:52:03.735Z,0.30
2023-05-01T12:54:37.823Z,0.20
2023-05-01T12:57:14.565Z,0.47
2023-05-01T12:59:43.279Z,0.30
2023-05-01T13:02:15.779Z,0.30
2023-05-01T13:04:49.051Z,0.30
2023-05-01T13:07:17.867Z,0.40
2023-05-01T13:09:56.376Z,0.28
2023-05-01T13:12:24.655Z,0.20
2023-05-01T13:14:52.070Z,0.20
2023-05-01T13:17:30.787Z,0.20
2023-05-01T13:20:07.304Z,0.20
2023-05-01T13:22:38.731Z,0.30
2023-05-01T13:25:13.187Z,0.30
2023-05-01T13:27:41.356Z,0.30
2023-05-01T13:30:09.805Z,0.20
2023-05-01T13:32:40.973Z,0.25
2023-05-01T13:35:11.510Z,0.30
2023-05-01T13:37:40.162Z,0.20
2023-05-01T13:40:07.560Z,0.30
2023-05-01T13:42:36.232Z,0.20
2023-05-01T13:45:06.350Z,0.20
2023-05-01T13:47:33.336Z,0.20
2023-05-01T13:50:00.501Z,0.20
2023-05-01T13:52:27.806Z,0.20
2023-05-01T13:54:56.924Z,0.20
2023-05-01T13:57:23.914Z,0.30
2023-05-01T13:59:50.782Z,0.20
2023-05-01T14:02:28.354Z,0.20
2023-05-01T14:04:57.064Z,0.30
2023-05-01T14:07:25.819Z,0.20
2023-05-01T14:09:57.999Z,0.20
2023-05-01T14:12:28.206Z,0.60
2023-05-01T14:14:55.487Z,0.30
2023-05-01T14:17:33.259Z,0.40
2023-05-01T14:20:00.813Z,0.30
2023-05-01T14:22:45.131Z,0.40
2023-05-01T14:25:33.046Z,0.30
2023-05-01T14:28:01.582Z,0.30
2023-05-01T14:30:38.337Z,0.30
2023-05-01T14:33:07.788Z,0.40
2023-05-01T14:35:36.314Z,0.20
2023-05-01T14:38:14.820Z,0.30
2023-05-01T14:40:42.685Z,0.30
2023-05-01T14:43:16.020Z,0.30
2023-05-01T14:45:45.963Z,0.20
2023-05-01T14:48:23.062Z,0.30
2023-05-01T14:50:51.055Z,0.20
2023-05-01T14:53:18.145Z,0.20
2023-05-01T14:55:44.992Z,0.20
2023-05-01T14:58:11.866Z,0.20
2023-05-01T15:00:40.134Z,0.20
2023-05-01T15:03:07.092Z,0.40
2023-05-01T15:05:34.495Z,0.20
2023-05-01T15:08:01.535Z,0.20
2023-05-01T15:10:28.969Z,0.30
2023-05-01T15:12:55.813Z,0.22
2023-05-01T15:15:22.671Z,0.32
2023-05-01T15:17:49.552Z,0.40
2023-05-01T15:20:16.497Z,0.22
2023-05-01T15:22:43.313Z,0.27
2023-05-01T15:25:12.037Z,0.30
2023-05-01T15:27:39.068Z,0.70
2023-05-01T15:30:06.492Z,0.30
2023-05-01T15:32:33.406Z,0.30
2023-05-01T15:35:00.689Z,0.40
2023-05-01T15:37:28.070Z,0.20
2023-05-01T15:39:55.196Z,0.20
2023-05-01T15:42:22.027Z,0.20
2023-05-01T15:44:48.943Z,0.20
2023-05-01T15:47:16.215Z,0.15
2023-05-01T15:49:43.260Z,0.20
2023-05-01T15:52:10.711Z,0.30
2023-05-01T15:54:37.730Z,0.20
2023-05-01T15:57:04.806Z,0.15
2023-05-01T15:59:31.608Z,0.20
2023-05-01T16:01:58.823Z,0.20
2023-05-01T16:04:25.636Z,0.30
2023-05-01T16:06:52.651Z,0.38
2023-05-01T16:09:20.290Z,0.20
2023-05-01T16:11:47.279Z,0.50
2023-05-01T16:14:15.692Z,0.35
2023-05-01T16:16:43.321Z,0.43
2023-05-01T16:19:16.061Z,0.40
2023-05-01T16:21:43.099Z,0.57
2023-05-01T16:24:10.833Z,0.50
2023-05-01T16:26:41.065Z,0.40
2023-05-01T16:29:08.315Z,0.68
2023-05-01T16:31:39.205Z,0.43
2023-05-01T16:34:07.653Z,0.60
2023-05-01T16:36:42.638Z,0.60
2023-05-01T16:39:20.827Z,0.50
2023-05-01T16:41:54.994Z,0.60
2023-05-01T16:44:23.278Z,0.47
2023-05-01T16:47:03.602Z,0.70
2023-05-01T16:49:30.654Z,0.57
2023-05-01T16:51:58.570Z,0.60
2023-05-01T16:54:36.417Z,0.50
2023-05-01T16:57:03.597Z,0.70
2023-05-01T16:59:30.870Z,0.82
2023-05-01T17:01:57.985Z,0.68
2023-05-01T17:04:25.400Z,0.70
2023-05-01T17:06:52.501Z,0.90
2023-05-01T17:09:19.434Z,0.80
2023-05-01T17:11:46.330Z,0.60
2023-05-01T17:14:13.180Z,0.50
2023-05-01T17:16:40.659Z,0.60
2023-05-01T17:19:09.817Z,0.63
2023-05-01T17:21:36.728Z,0.85
2023-05-01T17:24:04.575Z,0.73
2023-05-01T17:26:31.504Z,0.40
2023-05-01T17:28:58.435Z,0.50
2023-05-01T17:31:25.338Z,0.60
2023-05-01T17:33:52.238Z,0.50
2023-05-01T17:36:20.630Z,0.50
2023-05-01T17:38:47.543Z,0.50
2023-05-01T17:41:15.194Z,0.50
2023-05-01T17:43:44.651Z,0.53
2023-05-01T17:46:14.136Z,0.50
2023-05-01T17:48:44.527Z,0.40
2023-05-01T17:51:13.964Z,0.50
2023-05-01T17:53:41.591Z,0.47
2023-05-01T17:56:09.033Z,0.60
2023-05-01T17:58:35.953Z,0.90
2023-05-01T18:01:04.740Z,0.90
2023-05-01T18:03:34.857Z,1.00
2023-05-01T18:06:02.885Z,1.10
2023-05-01T18:08:30.178Z,1.27
2023-05-01T18:10:57.018Z,0.75
2023-05-01T18:13:29.292Z,0.50
2023-05-01T18:15:56.573Z,1.00
2023-05-01T18:18:23.746Z,0.60
2023-05-01T18:20:50.698Z,0.40
2023-05-01T18:23:18.912Z,0.45
2023-05-01T18:25:48.978Z,0.45
2023-05-01T18:28:16.514Z,0.80
2023-05-01T18:30:44.104Z,0.75
2023-05-01T18:33:12.171Z,0.70
2023-05-01T18:35:40.792Z,0.70
2023-05-01T18:38:08.049Z,1.00
2023-05-01T18:40:35.984Z,0.90
2023-05-01T18:43:03.117Z,1.00
2023-05-01T18:45:30.836Z,1.00
2023-05-01T18:47:59.652Z,1.15
2023-05-01T18:50:26.590Z,1.40
2023-05-01T18:52:53.395Z,1.38
2023-05-01T18:55:21.444Z,1.35
2023-05-01T18:57:50.085Z,1.20
2023-05-01T19:00:17.687Z,1.23
2023-05-01T19:02:47.691Z,1.00
2023-05-01T19:05:15.179Z,0.80
2023-05-01T19:07:41.995Z,0.93
2023-05-01T19:10:09.233Z,0.93
2023-05-01T19:12:37.550Z,0.98
2023-05-01T19:15:04.605Z,0.82
2023-05-01T19:17:31.437Z,1.08
2023-05-01T19:19:58.489Z,1.27
2023-05-01T19:22:26.140Z,1.20
2023-05-01T19:24:52.979Z,1.15
2023-05-01T19:27:19.866Z,1.23
2023-05-01T19:29:46.724Z,1.60
2023-05-01T19:32:13.697Z,1.45
2023-05-01T19:34:43.034Z,1.27
2023-05-01T19:37:09.825Z,1.05
2023-05-01T19:39:36.974Z,1.20
2023-05-01T19:42:04.224Z,0.95
2023-05-01T19:44:31.083Z,1.00
2023-05-01T19:46:58.026Z,1.20
2023-05-01T19:49:25.086Z,1.90
2023-05-01T19:51:53.497Z,2.60
2023-05-01T19:54:22.702Z,2.20
2023-05-01T19:56:52.627Z,2.35
2023-05-01T19:59:19.729Z,2.00
2023-05-01T20:01:46.743Z,1.67
2023-05-01T20:04:13.772Z,1.00
2023-05-01T20:06:40.691Z,1.20
2023-05-01T20:09:07.697Z,0.88
2023-05-01T20:11:35.935Z,0.82
2023-05-01T20:14:03.663Z,0.70
2023-05-01T20:16:31.046Z,1.30
2023-05-01T20:18:57.949Z,1.30
2023-05-01T20:21:25.092Z,1.08
2023-05-01T20:23:52.529Z,1.00
2023-05-01T20:26:20.000Z,0.90
2023-05-01T20:28:48.781Z,0.80
2023-05-01T20:31:15.810Z,0.80
2023-05-01T20:33:42.745Z,1.45
2023-05-01T20:36:09.884Z,1.90
2023-05-01T20:38:43.048Z,2.00
2023-05-01T20:41:10.129Z,1.90
2023-05-01T20:43:37.079Z,2.13
2023-05-01T20:46:03.938Z,1.93
2023-05-01T20:48:31.755Z,1.90
2023-05-01T20:50:58.627Z,2.80
2023-05-01T20:53:25.504Z,1.95
2023-05-01T20:55:52.346Z,2.10
2023-05-01T20:58:19.274Z,1.70
2023-05-01T21:00:46.096Z,1.55
2023-05-01T21:03:15.166Z,1.73
2023-05-01T21:05:42.291Z,1.50
2023-05-01T21:08:09.164Z,1.40
2023-05-01T21:10:36.799Z,1.30
2023-05-01T21:13:03.791Z,0.90
2023-05-01T21:15:32.044Z,0.93
2023-05-01T21:17:59.376Z,1.00
2023-05-01T21:20:35.222Z,1.10
2023-05-01T21:23:02.555Z,1.10
2023-05-01T21:25:31.660Z,1.40
2023-05-01T21:28:02.241Z,1.30
2023-05-01T21:30:36.620Z,1.30
2023-05-01T21:33:06.501Z,1.05
2023-05-01T21:35:33.993Z,1.35
2023-05-01T21:38:00.955Z,3.00
2023-05-01T21:40:27.893Z,2.95
2023-05-01T21:42:55.460Z,1.75
2023-05-01T21:45:22.678Z,1.75
2023-05-01T21:47:51.317Z,1.65
2023-05-01T21:50:19.969Z,1.27
2023-05-01T21:52:48.544Z,1.20
2023-05-01T21:55:23.029Z,1.17
2023-05-01T21:57:50.337Z,1.10
2023-05-01T22:00:18.941Z,0.95
2023-05-01T22:02:48.710Z,1.00
2023-05-01T22:05:18.873Z,1.00
2023-05-01T22:07:47.107Z,0.95
2023-05-01T22:10:16.169Z,0.98
2023-05-01T22:12:44.662Z,1.00
2023-05-01T22:15:12.946Z,0.90
2023-05-01T22:17:40.634Z,0.90
2023-05-01T22:20:09.119Z,1.02
2023-05-01T22:22:37.009Z,1.15
2023-05-01T22:25:04.410Z,1.13
2023-05-01T22:27:32.220Z,1.20
2023-05-01T22:29:59.382Z,1.13
2023-05-01T22:32:26.920Z,1.10
2023-05-01T22:34:53.882Z,1.40
2023-05-01T22:37:21.312Z,1.20
2023-05-01T22:39:48.128Z,1.38
2023-05-01T22:42:14.913Z,1.30
2023-05-01T22:44:41.876Z,1.50
2023-05-01T22:47:08.677Z,1.40
2023-05-01T22:49:35.458Z,1.35
2023-05-01T22:52:02.869Z,1.48
2023-05-01T22:54:29.675Z,1.95
2023-05-01T22:56:56.573Z,2.40
2023-05-01T22:59:23.420Z,2.30
2023-05-01T23:01:50.235Z,2.00
2023-05-01T23:04:17.213Z,1.63
2023-05-01T23:06:44.747Z,1.60
2023-05-01T23:09:12.173Z,1.40
2023-05-01T23:11:40.730Z,1.30
2023-05-01T23:14:07.693Z,1.40
2023-05-01T23:16:44.579Z,1.38
2023-05-01T23:19:23.341Z,1.23
2023-05-01T23:21:51.286Z,1.50
2023-05-01T23:24:20.132Z,1.33
2023-05-01T23:26:47.365Z,1.50
2023-05-01T23:29:16.200Z,1.17
2023-05-01T23:31:47.561Z,1.25
2023-05-01T23:34:17.326Z,1.35
2023-05-01T23:36:46.176Z,1.38
2023-05-01T23:39:13.429Z,1.38
2023-05-01T23:41:40.665Z,1.60
2023-05-01T23:44:08.206Z,1.27
2023-05-01T23:46:35.797Z,1.20
2023-05-01T23:49:02.725Z,1.30
2023-05-01T23:51:29.918Z,1.40
2023-05-01T23:53:56.686Z,1.45
2023-05-01T23:56:23.505Z,1.40
2023-05-01T23:58:51.886Z,1.60
